KMLS

Frank Wiley Field Airport

Miles City, Montana, USA
METAR KMLS 220353Z AUTO 33011KT 10SM FEW012 OVC070 M04/M06 A3002 RMK AO2 SLP205 T10391056
Observed Flight Rules
Jan-22 @ 03:53 UTC (51 minutes ago) Visual Flight Rules
Wind Visibility Clouds
330° at 11 knots 10 miles
  • Few at 1,200' AGL
  • Overcast at 7,000' AGL
Temperatures Readings
Current -4°C / 25°F
Dewpoint -6°C / 21°F
Humidity 86%
Altimeter 30.02" Hg
Pressure 1020.5 hPa
Elevation 801
METAR KMLS 220353Z AUTO 33011KT 10SM FEW012 OVC070 M04/M06 A3002 RMK AO2 SLP205 T10391056
Observed Flight Rules
Jan-22 @ 03:53 UTC
(51 minutes ago)
VFR
Wind Visibility
330° at 11 knots 10 miles
Clouds
  • Few at 1,200' AGL
  • Overcast at 7,000' AGL
Temperature Dewpoint
-4°C / 25°F -6°C / 21°F
Humidity Altimeter Pressure
86% 30.02" Hg 1020.5 hPa